createdAt,value
2022-08-04T00:00:31.086Z,19.60
2022-08-04T00:03:14.379Z,19.50
2022-08-04T00:05:55.207Z,19.50
2022-08-04T00:08:34.859Z,19.40
2022-08-04T00:11:03.829Z,19.40
2022-08-04T00:13:38.359Z,19.30
2022-08-04T00:16:34.842Z,19.30
2022-08-04T00:19:11.382Z,19.30
2022-08-04T00:21:42.789Z,19.30
2022-08-04T00:24:13.356Z,19.30
2022-08-04T00:26:42.300Z,19.30
2022-08-04T00:29:10.532Z,19.30
2022-08-04T00:31:57.201Z,19.30
2022-08-04T00:34:27.871Z,19.30
2022-08-04T00:36:57.646Z,19.20
2022-08-04T00:39:26.824Z,19.20
2022-08-04T00:42:24.565Z,19.20
2022-08-04T00:45:04.267Z,19.20
2022-08-04T00:47:52.831Z,19.20
2022-08-04T00:50:28.638Z,19.10
2022-08-04T00:53:07.511Z,19.10
2022-08-04T00:56:06.573Z,19.10
2022-08-04T00:58:48.302Z,19.10
2022-08-04T01:01:30.449Z,19.00
2022-08-04T01:04:09.327Z,19.00
2022-08-04T01:06:50.888Z,19.00
2022-08-04T01:09:34.809Z,19.00
2022-08-04T01:12:31.510Z,19.00
2022-08-04T01:15:06.530Z,19.00
2022-08-04T01:17:59.650Z,18.90
2022-08-04T01:20:34.998Z,18.90
2022-08-04T01:23:50.872Z,18.90
2022-08-04T01:26:57.776Z,18.90
2022-08-04T01:29:47.035Z,19.00
2022-08-04T01:32:25.547Z,18.90
2022-08-04T01:34:59.942Z,18.90
2022-08-04T01:37:43.535Z,18.90
2022-08-04T01:40:15.758Z,18.90
2022-08-04T01:42:45.711Z,18.90
2022-08-04T01:45:16.739Z,18.80
2022-08-04T01:47:50.856Z,18.90
2022-08-04T01:50:19.060Z,18.80
2022-08-04T01:52:50.912Z,18.90
2022-08-04T01:55:20.124Z,18.90
2022-08-04T01:57:51.191Z,18.90
2022-08-04T02:00:23.673Z,18.90
2022-08-04T02:02:52.425Z,18.90
2022-08-04T02:05:22.223Z,18.80
2022-08-04T02:08:05.514Z,18.80
2022-08-04T02:10:54.430Z,18.80
2022-08-04T02:13:28.191Z,18.70
2022-08-04T02:16:03.891Z,18.60
2022-08-04T02:18:40.570Z,18.60
2022-08-04T02:21:09.349Z,18.50
2022-08-04T02:23:39.363Z,18.50
2022-08-04T02:26:19.297Z,18.50
2022-08-04T02:29:00.276Z,18.50
2022-08-04T02:31:34.332Z,18.50
2022-08-04T02:34:09.572Z,18.50
2022-08-04T02:36:39.851Z,18.50
2022-08-04T02:39:09.211Z,18.40
2022-08-04T02:41:38.509Z,18.40
2022-08-04T02:44:08.978Z,18.50
2022-08-04T02:46:41.463Z,18.40
2022-08-04T02:49:11.474Z,18.50
2022-08-04T02:51:43.423Z,18.40
2022-08-04T02:54:11.658Z,18.40
2022-08-04T02:56:41.945Z,18.40
2022-08-04T02:59:13.517Z,18.40
2022-08-04T03:01:58.049Z,18.30
2022-08-04T03:04:50.584Z,18.30
2022-08-04T03:07:45.471Z,18.30
2022-08-04T03:11:01.623Z,18.20
2022-08-04T03:13:42.848Z,18.10
2022-08-04T03:16:38.710Z,18.10
2022-08-04T03:19:58.182Z,18.00
2022-08-04T03:23:13.463Z,18.00
2022-08-04T03:26:11.031Z,18.00
2022-08-04T03:29:36.773Z,18.00
2022-08-04T03:32:39.415Z,18.00
2022-08-04T03:35:27.690Z,18.00
2022-08-04T03:38:13.394Z,18.00
2022-08-04T03:41:03.858Z,18.00
2022-08-04T03:44:02.891Z,18.00
2022-08-04T03:46:54.812Z,17.90
2022-08-04T03:49:50.241Z,18.00
2022-08-04T03:53:02.532Z,18.00
2022-08-04T03:55:51.669Z,18.10
2022-08-04T03:58:44.452Z,18.00
2022-08-04T04:01:29.421Z,18.00
2022-08-04T04:04:53.228Z,18.10
2022-08-04T04:07:58.236Z,18.10
2022-08-04T04:10:47.967Z,18.10
2022-08-04T04:13:31.738Z,18.20
2022-08-04T04:16:35.535Z,18.20
2022-08-04T04:19:24.036Z,18.20
2022-08-04T04:22:18.872Z,18.20
2022-08-04T04:25:15.561Z,18.20
2022-08-04T04:28:44.927Z,18.20
2022-08-04T04:31:04.761Z,18.20
2022-08-04T04:33:56.899Z,18.30
2022-08-04T04:36:36.993Z,18.30
2022-08-04T04:39:14.771Z,18.30
2022-08-04T04:42:15.079Z,18.40
2022-08-04T04:45:12.558Z,18.40
2022-08-04T04:48:08.757Z,18.50
2022-08-04T04:50:52.771Z,18.60
2022-08-04T04:53:29.366Z,18.70
2022-08-04T04:56:04.587Z,18.70
2022-08-04T04:58:36.199Z,18.80
2022-08-04T05:01:35.641Z,18.90
2022-08-04T05:04:37.065Z,18.90
2022-08-04T05:07:24.123Z,19.00
2022-08-04T05:10:08.126Z,19.00
2022-08-04T05:14:38.144Z,19.00
2022-08-04T05:15:57.423Z,19.10
2022-08-04T05:18:32.008Z,19.20
2022-08-04T05:21:09.236Z,19.20
2022-08-04T05:23:41.797Z,19.20
2022-08-04T05:26:14.518Z,19.30
2022-08-04T05:28:46.097Z,19.30
2022-08-04T05:31:24.392Z,19.40
2022-08-04T05:33:58.035Z,19.40
2022-08-04T05:36:40.837Z,19.50
2022-08-04T05:39:13.906Z,19.60
2022-08-04T05:41:45.901Z,19.70
2022-08-04T05:44:17.944Z,19.80
2022-08-04T05:46:53.670Z,19.90
2022-08-04T05:49:25.919Z,20.00
2022-08-04T05:51:56.841Z,20.20
2022-08-04T05:54:26.509Z,20.30
2022-08-04T05:56:56.425Z,20.40
2022-08-04T05:59:26.626Z,20.50
2022-08-04T06:01:59.034Z,20.60
2022-08-04T06:04:34.206Z,20.60
2022-08-04T06:07:02.669Z,20.70
2022-08-04T06:09:32.044Z,20.80
2022-08-04T06:12:04.143Z,20.90
2022-08-04T06:14:38.128Z,21.00
2022-08-04T06:17:18.427Z,21.10
2022-08-04T06:20:19.037Z,21.10
2022-08-04T06:22:51.724Z,21.20
2022-08-04T06:25:22.702Z,21.30
2022-08-04T06:27:52.208Z,21.30
2022-08-04T06:30:22.013Z,21.40
2022-08-04T06:33:03.603Z,21.50
2022-08-04T06:35:34.924Z,21.60
2022-08-04T06:38:04.400Z,21.70
2022-08-04T06:40:34.699Z,21.80
2022-08-04T06:43:04.518Z,21.90
2022-08-04T06:45:35.468Z,21.90
2022-08-04T06:48:05.306Z,22.10
2022-08-04T06:51:24.918Z,22.10
2022-08-04T06:53:25.805Z,22.20
2022-08-04T06:55:55.002Z,22.30
2022-08-04T06:58:24.555Z,22.40
2022-08-04T07:00:53.939Z,22.50
2022-08-04T07:03:23.020Z,22.60
2022-08-04T07:05:53.696Z,22.70
2022-08-04T07:08:22.926Z,22.80
2022-08-04T07:10:53.329Z,23.00
2022-08-04T07:13:23.409Z,23.10
2022-08-04T07:15:52.333Z,23.20
2022-08-04T07:18:20.597Z,23.30
2022-08-04T07:20:49.349Z,23.50
2022-08-04T07:23:24.096Z,23.50
2022-08-04T07:26:01.125Z,23.50
2022-08-04T07:28:41.379Z,23.60
2022-08-04T07:31:31.801Z,23.70
2022-08-04T07:34:16.641Z,23.70
2022-08-04T07:36:50.118Z,23.90
2022-08-04T07:39:28.489Z,24.00
2022-08-04T07:41:58.271Z,24.20
2022-08-04T07:44:27.032Z,24.40
2022-08-04T07:46:55.492Z,24.40
2022-08-04T07:49:55.081Z,24.60
2022-08-04T07:52:12.973Z,24.60
2022-08-04T07:54:43.007Z,24.70
2022-08-04T07:57:39.687Z,24.90
2022-08-04T07:59:59.539Z,25.00
2022-08-04T08:02:28.393Z,25.10
2022-08-04T08:04:57.183Z,25.30
2022-08-04T08:07:25.427Z,25.50
2022-08-04T08:09:55.053Z,25.50
2022-08-04T08:12:38.106Z,25.60
2022-08-04T08:15:15.822Z,25.80
2022-08-04T08:17:58.241Z,25.80
2022-08-04T08:20:29.555Z,25.80
2022-08-04T08:22:58.956Z,26.10
2022-08-04T08:25:28.841Z,26.30
2022-08-04T08:27:57.042Z,26.50
2022-08-04T08:30:31.686Z,26.50
2022-08-04T08:33:05.585Z,26.50
2022-08-04T08:35:47.405Z,26.60
2022-08-04T08:38:35.137Z,26.80
2022-08-04T08:41:25.048Z,26.90
2022-08-04T08:44:19.072Z,27.00
2022-08-04T08:47:21.071Z,27.30
2022-08-04T08:50:04.626Z,27.90
2022-08-04T08:53:00.627Z,28.00
2022-08-04T08:55:43.821Z,27.90
2022-08-04T08:58:49.842Z,28.00
2022-08-04T09:01:42.014Z,28.10
2022-08-04T09:04:35.406Z,28.10
2022-08-04T09:07:15.761Z,28.10
2022-08-04T09:09:52.774Z,28.10
2022-08-04T09:12:29.195Z,28.60
2022-08-04T09:15:07.459Z,29.50
2022-08-04T09:17:43.081Z,30.40
2022-08-04T09:20:18.333Z,31.90
2022-08-04T09:22:51.791Z,32.00
2022-08-04T09:25:25.282Z,31.60
2022-08-04T09:27:55.983Z,31.70
2022-08-04T09:30:33.923Z,32.40
2022-08-04T09:33:16.367Z,33.10
2022-08-04T09:35:54.348Z,35.50
2022-08-04T09:38:36.142Z,37.80
2022-08-04T09:41:33.921Z,38.90
2022-08-04T09:44:52.681Z,39.80
2022-08-04T09:47:12.585Z,41.90
2022-08-04T09:49:48.904Z,43.70
2022-08-04T09:52:28.025Z,45.00
2022-08-04T09:55:06.033Z,45.30
2022-08-04T09:57:49.108Z,47.30
2022-08-04T10:00:20.518Z,45.10
2022-08-04T10:03:17.434Z,44.20
2022-08-04T10:06:00.705Z,44.00
2022-08-04T10:08:52.987Z,44.10
2022-08-04T10:11:34.361Z,42.90
2022-08-04T10:14:39.985Z,44.10
2022-08-04T10:17:23.287Z,44.00
2022-08-04T10:20:01.644Z,42.90
2022-08-04T10:22:49.974Z,42.60
2022-08-04T10:26:02.917Z,43.50
2022-08-04T10:28:24.584Z,45.60
2022-08-04T10:30:59.113Z,45.10
2022-08-04T10:33:32.387Z,45.50
2022-08-04T10:36:05.769Z,47.20
2022-08-04T10:38:40.791Z,45.10
2022-08-04T10:41:17.493Z,40.90
2022-08-04T10:43:52.095Z,38.00
2022-08-04T10:46:24.355Z,36.60
2022-08-04T10:48:58.973Z,35.40
2022-08-04T10:51:58.672Z,34.80
2022-08-04T10:54:32.311Z,33.60
2022-08-04T10:57:05.885Z,33.10
2022-08-04T10:59:40.609Z,33.00
2022-08-04T11:02:28.245Z,32.50
2022-08-04T11:05:05.121Z,32.30
2022-08-04T11:07:38.189Z,31.90
2022-08-04T11:10:08.191Z,31.70
2022-08-04T11:12:39.244Z,31.60
2022-08-04T11:15:13.377Z,31.50
2022-08-04T11:17:45.216Z,31.00
2022-08-04T11:20:35.160Z,30.80
2022-08-04T11:23:10.186Z,30.90
2022-08-04T11:25:51.970Z,30.80
2022-08-04T11:28:32.321Z,30.60
2022-08-04T11:31:06.228Z,30.50
2022-08-04T11:33:42.456Z,30.50
2022-08-04T11:36:21.589Z,30.50
2022-08-04T11:38:59.323Z,30.50
2022-08-04T11:41:41.948Z,30.40
2022-08-04T11:44:17.746Z,30.40
2022-08-04T11:46:51.771Z,30.10
2022-08-04T11:49:30.476Z,29.90
2022-08-04T11:52:01.578Z,30.00
2022-08-04T11:54:33.080Z,30.00
2022-08-04T11:57:02.950Z,29.90
2022-08-04T11:59:35.417Z,29.90
2022-08-04T12:02:23.576Z,30.00
2022-08-04T12:04:57.922Z,30.00
2022-08-04T12:07:41.781Z,29.90
2022-08-04T12:10:41.484Z,29.90
2022-08-04T12:13:18.808Z,29.90
2022-08-04T12:15:56.175Z,30.00
2022-08-04T12:18:29.031Z,29.90
2022-08-04T12:21:02.004Z,29.90
2022-08-04T12:23:34.683Z,29.80
2022-08-04T12:26:07.440Z,29.90
2022-08-04T12:29:07.224Z,29.90
2022-08-04T12:31:29.623Z,29.90
2022-08-04T12:34:06.473Z,29.90
2022-08-04T12:36:44.354Z,29.80
2022-08-04T12:39:18.458Z,29.70
2022-08-04T12:41:58.360Z,29.80
2022-08-04T12:44:33.274Z,29.70
2022-08-04T12:47:25.661Z,29.80
2022-08-04T12:50:02.070Z,29.80
2022-08-04T12:52:59.142Z,29.80
2022-08-04T12:55:26.256Z,29.70
2022-08-04T12:57:56.645Z,29.80
2022-08-04T13:00:30.538Z,29.90
2022-08-04T13:03:10.028Z,29.90
2022-08-04T13:05:40.922Z,30.00
2022-08-04T13:08:11.380Z,29.90
2022-08-04T13:10:41.378Z,29.90
2022-08-04T13:13:18.217Z,29.90
2022-08-04T13:15:57.633Z,29.80
2022-08-04T13:18:30.322Z,29.80
2022-08-04T13:21:20.894Z,29.80
2022-08-04T13:24:10.382Z,29.80
2022-08-04T13:26:55.969Z,29.80
2022-08-04T13:29:59.201Z,29.80
2022-08-04T13:32:29.744Z,29.60
2022-08-04T13:35:01.198Z,29.70
2022-08-04T13:37:34.987Z,29.80
2022-08-04T13:40:05.653Z,29.70
2022-08-04T13:42:36.137Z,29.60
2022-08-04T13:45:08.248Z,29.60
2022-08-04T13:47:40.338Z,29.70
2022-08-04T13:50:18.096Z,29.70
2022-08-04T13:52:48.127Z,29.60
2022-08-04T13:55:25.283Z,29.70
2022-08-04T13:57:58.409Z,29.80
2022-08-04T14:00:43.643Z,29.80
2022-08-04T14:03:23.956Z,29.80
2022-08-04T14:06:14.045Z,29.80
2022-08-04T14:08:51.152Z,29.80
2022-08-04T14:12:10.892Z,29.80
2022-08-04T14:14:18.424Z,29.80
2022-08-04T14:17:04.396Z,29.80
2022-08-04T14:19:51.490Z,29.70
2022-08-04T14:22:30.503Z,29.70
2022-08-04T14:24:59.592Z,29.70
2022-08-04T14:27:30.460Z,29.60
2022-08-04T14:29:58.779Z,29.70
2022-08-04T14:32:28.606Z,29.60
2022-08-04T14:34:57.772Z,29.70
2022-08-04T14:37:26.067Z,29.70
2022-08-04T14:40:17.562Z,29.70
2022-08-04T14:42:44.548Z,29.70
2022-08-04T14:45:32.134Z,29.70
2022-08-04T14:48:03.200Z,29.70
2022-08-04T14:50:39.005Z,29.60
2022-08-04T14:53:09.664Z,29.60
2022-08-04T14:55:38.715Z,29.60
2022-08-04T14:58:35.314Z,29.60
2022-08-04T15:00:58.477Z,29.60
2022-08-04T15:03:30.762Z,29.70
2022-08-04T15:06:06.647Z,29.60
2022-08-04T15:08:38.024Z,29.60
2022-08-04T15:11:06.277Z,29.50
2022-08-04T15:13:35.418Z,29.50
2022-08-04T15:16:07.968Z,29.50
2022-08-04T15:18:41.873Z,29.50
2022-08-04T15:21:11.966Z,29.50
2022-08-04T15:23:40.361Z,29.50
2022-08-04T15:26:12.770Z,29.50
2022-08-04T15:28:46.056Z,29.50
2022-08-04T15:32:05.669Z,29.50
2022-08-04T15:34:06.266Z,29.50
2022-08-04T15:36:39.858Z,29.50
2022-08-04T15:39:17.865Z,29.40
2022-08-04T15:41:55.636Z,29.40
2022-08-04T15:45:09.607Z,29.30
2022-08-04T15:47:37.858Z,29.40
2022-08-04T15:50:09.968Z,29.30
2022-08-04T15:53:12.687Z,29.30
2022-08-04T15:55:43.203Z,29.20
2022-08-04T15:58:14.013Z,29.10
2022-08-04T16:01:15.543Z,29.00
2022-08-04T16:03:53.062Z,28.90
2022-08-04T16:06:45.835Z,28.80
2022-08-04T16:09:45.374Z,28.70
2022-08-04T16:12:59.471Z,28.60
2022-08-04T16:15:42.240Z,28.60
2022-08-04T16:18:25.696Z,28.50
2022-08-04T16:20:56.709Z,28.50
2022-08-04T16:24:02.067Z,28.50
2022-08-04T16:26:54.939Z,28.30
2022-08-04T16:29:40.397Z,28.20
2022-08-04T16:32:30.747Z,28.20
2022-08-04T16:35:04.229Z,28.20
2022-08-04T16:37:34.978Z,28.20
2022-08-04T16:40:38.869Z,28.20
2022-08-04T16:43:10.178Z,28.20
2022-08-04T16:45:45.153Z,28.20
2022-08-04T16:48:14.033Z,28.20
2022-08-04T16:50:54.329Z,28.10
2022-08-04T16:53:53.106Z,28.20
2022-08-04T16:56:15.155Z,28.20
2022-08-04T16:58:53.124Z,28.20
2022-08-04T17:01:33.590Z,28.20
2022-08-04T17:04:06.699Z,28.20
2022-08-04T17:06:40.281Z,28.20
2022-08-04T17:09:14.026Z,28.20
2022-08-04T17:11:42.991Z,28.20
2022-08-04T17:14:11.790Z,28.10
2022-08-04T17:16:43.531Z,28.00
2022-08-04T17:19:23.633Z,28.00
2022-08-04T17:22:00.647Z,27.90
2022-08-04T17:24:32.309Z,27.80
2022-08-04T17:27:00.614Z,27.80
2022-08-04T17:29:43.267Z,27.70
2022-08-04T17:32:17.331Z,27.60
2022-08-04T17:34:49.329Z,27.50
2022-08-04T17:40:12.237Z,27.30
2022-08-04T17:42:42.016Z,27.20
2022-08-04T17:48:02.955Z,27.00
2022-08-04T17:50:35.913Z,26.90
2022-08-04T17:53:12.621Z,26.90
2022-08-04T17:55:47.084Z,26.70
2022-08-04T17:58:21.465Z,26.60
2022-08-04T18:01:24.813Z,26.50
2022-08-04T18:03:52.800Z,26.50
2022-08-04T18:06:25.418Z,26.30
2022-08-04T18:08:58.105Z,26.20
2022-08-04T18:11:29.579Z,26.20
2022-08-04T18:14:10.704Z,26.10
2022-08-04T18:16:44.986Z,26.00
2022-08-04T18:19:18.978Z,25.90
2022-08-04T18:22:00.005Z,25.80
2022-08-04T18:24:35.658Z,25.70
2022-08-04T18:27:21.007Z,25.60
2022-08-04T18:30:14.848Z,25.60
2022-08-04T18:32:51.315Z,25.50
2022-08-04T18:36:31.383Z,25.40
2022-08-04T18:41:09.220Z,25.20
2022-08-04T18:43:40.742Z,25.10
2022-08-04T18:46:14.591Z,25.10
2022-08-04T18:48:45.298Z,25.00
2022-08-04T18:51:24.288Z,24.90
2022-08-04T18:53:55.333Z,24.90
2022-08-04T18:56:29.667Z,24.80
2022-08-04T18:59:00.738Z,24.80
2022-08-04T19:01:29.984Z,24.70
2022-08-04T19:04:33.212Z,24.70
2022-08-04T19:07:24.599Z,24.60
2022-08-04T19:09:58.062Z,24.60
2022-08-04T19:12:29.470Z,24.50
2022-08-04T19:15:10.264Z,24.40
2022-08-04T19:17:54.029Z,24.40
2022-08-04T19:20:29.846Z,24.40
2022-08-04T19:24:11.302Z,24.30
2022-08-04T19:26:01.681Z,24.20
2022-08-04T19:28:35.472Z,24.20
2022-08-04T19:31:06.217Z,24.20
2022-08-04T19:33:58.897Z,24.10
2022-08-04T19:36:27.858Z,24.00
2022-08-04T19:38:58.851Z,24.00
2022-08-04T19:41:27.742Z,24.00
2022-08-04T19:43:56.100Z,24.00
2022-08-04T19:46:25.651Z,23.90
2022-08-04T19:49:00.164Z,23.90
2022-08-04T19:51:29.989Z,23.80
2022-08-04T19:54:02.895Z,23.80
2022-08-04T19:56:40.242Z,23.70
2022-08-04T19:59:10.050Z,23.70
2022-08-04T20:01:44.757Z,23.60
2022-08-04T20:04:13.869Z,23.60
2022-08-04T20:06:42.551Z,23.50
2022-08-04T20:09:26.063Z,23.50
2022-08-04T20:11:55.772Z,23.50
2022-08-04T20:14:32.854Z,23.40
2022-08-04T20:17:03.325Z,23.40
2022-08-04T20:19:38.836Z,23.30
2022-08-04T20:22:50.598Z,23.30
2022-08-04T20:25:17.989Z,23.20
2022-08-04T20:27:59.512Z,23.20
2022-08-04T20:30:30.079Z,23.10
2022-08-04T20:33:00.122Z,23.10
2022-08-04T20:35:28.405Z,23.00
2022-08-04T20:38:00.402Z,23.00
2022-08-04T20:40:30.850Z,22.90
2022-08-04T20:42:59.549Z,22.90
2022-08-04T20:45:55.820Z,22.90
2022-08-04T20:48:16.605Z,22.80
2022-08-04T20:50:47.164Z,22.80
2022-08-04T20:53:16.424Z,22.70
2022-08-04T20:55:55.274Z,22.70
2022-08-04T20:58:27.711Z,22.60
2022-08-04T21:00:57.043Z,22.60
2022-08-04T21:03:49.227Z,22.60
2022-08-04T21:06:13.657Z,22.50
2022-08-04T21:08:44.113Z,22.50
2022-08-04T21:14:15.286Z,22.30
2022-08-04T21:16:53.833Z,22.20
2022-08-04T21:19:24.591Z,22.20
2022-08-04T21:21:55.516Z,22.20
2022-08-04T21:24:26.222Z,22.10
2022-08-04T21:26:57.631Z,22.10
2022-08-04T21:29:34.662Z,22.00
2022-08-04T21:32:05.714Z,22.00
2022-08-04T21:34:39.446Z,21.90
2022-08-04T21:37:10.452Z,21.90
2022-08-04T21:39:50.177Z,21.80
2022-08-04T21:42:30.626Z,21.80
2022-08-04T21:44:59.255Z,21.70
2022-08-04T21:47:46.073Z,21.70
2022-08-04T21:50:19.775Z,21.60
2022-08-04T21:52:49.306Z,21.60
2022-08-04T21:55:19.108Z,21.60
2022-08-04T21:57:49.416Z,21.60
2022-08-04T22:00:20.226Z,21.50
2022-08-04T22:02:53.454Z,21.50
2022-08-04T22:05:22.456Z,21.50
2022-08-04T22:10:38.859Z,21.40
2022-08-04T22:13:22.738Z,21.40
2022-08-04T22:18:39.417Z,21.30
2022-08-04T22:21:11.962Z,21.20
2022-08-04T22:23:45.465Z,21.20
2022-08-04T22:26:20.011Z,21.20
2022-08-04T22:28:57.939Z,21.10
2022-08-04T22:31:26.696Z,21.10
2022-08-04T22:34:14.821Z,21.00
2022-08-04T22:36:47.471Z,21.00
2022-08-04T22:39:16.383Z,21.00
2022-08-04T22:41:48.714Z,21.00
2022-08-04T22:44:33.643Z,20.90
2022-08-04T22:47:02.543Z,20.90
2022-08-04T22:49:32.596Z,20.90
2022-08-04T22:52:03.486Z,20.90
2022-08-04T22:54:38.234Z,20.80
2022-08-04T22:57:08.857Z,20.80
2022-08-04T22:59:43.074Z,20.70
2022-08-04T23:02:11.669Z,20.70
2022-08-04T23:04:43.038Z,20.70
2022-08-04T23:07:12.632Z,20.70
2022-08-04T23:09:49.997Z,20.70
2022-08-04T23:12:25.376Z,20.70
2022-08-04T23:14:56.270Z,20.70
2022-08-04T23:17:25.851Z,20.60
2022-08-04T23:19:59.190Z,20.60
2022-08-04T23:22:42.399Z,20.60
2022-08-04T23:25:15.510Z,20.60
2022-08-04T23:27:50.921Z,20.60
2022-08-04T23:30:24.950Z,20.60
2022-08-04T23:32:57.971Z,20.60
2022-08-04T23:35:26.375Z,20.50
2022-08-04T23:37:56.968Z,20.50
2022-08-04T23:40:32.908Z,20.50
2022-08-04T23:43:02.271Z,20.50
2022-08-04T23:46:04.169Z,20.40
2022-08-04T23:48:35.947Z,20.40
2022-08-04T23:51:13.852Z,20.40
2022-08-04T23:54:01.630Z,20.40
2022-08-04T23:56:32.337Z,20.40
2022-08-04T23:59:03.540Z,20.30
